TimeEST,TemperatureF,Dew PointF,Humidity,Sea Level PressureIn,VisibilityMPH,Wind Direction,Wind SpeedMPH,Gust SpeedMPH,PrecipitationIn,Events,Conditions,WindDirDegrees,DateUTC
12:54 AM,34.0,33.1,96,29.96,5.0,East,5.8,-,N/A,,Overcast,90,2012-12-08 05:54:00
1:54 AM,35.1,34.0,96,29.95,6.0,ENE,4.6,-,0.00,Rain,Light Rain,70,2012-12-08 06:54:00
2:54 AM,35.1,34.0,96,29.94,5.0,ENE,5.8,-,0.01,Rain,Light Rain,70,2012-12-08 07:54:00
3:54 AM,35.1,35.1,100,29.92,4.0,East,5.8,-,0.02,Rain,Light Rain,80,2012-12-08 08:54:00
4:54 AM,36.0,34.0,93,29.90,4.0,East,8.1,-,0.02,Rain,Light Rain,80,2012-12-08 09:54:00
5:54 AM,36.0,35.1,97,29.90,4.0,East,5.8,-,0.02,Rain,Light Rain,100,2012-12-08 10:54:00
6:01 AM,35.6,35.6,100,29.89,4.0,East,4.6,-,0.01,Rain,Light Rain,90,2012-12-08 11:01:00
6:54 AM,36.0,35.1,97,29.89,4.0,East,5.8,-,0.01,,Overcast,80,2012-12-08 11:54:00
7:14 AM,35.6,35.6,100,29.88,5.0,East,4.6,-,N/A,,Overcast,80,2012-12-08 12:14:00
7:36 AM,37.4,35.6,93,29.87,4.0,East,6.9,-,0.00,,Light Drizzle,80,2012-12-08 12:36:00
7:54 AM,37.0,36.0,96,29.87,3.0,East,6.9,-,0.00,,Light Drizzle,80,2012-12-08 12:54:00
8:54 AM,37.9,37.0,97,29.86,3.0,ENE,4.6,-,0.00,,Light Drizzle,70,2012-12-08 13:54:00
9:38 AM,39.2,37.4,93,29.83,5.0,East,8.1,-,0.00,,Mostly Cloudy,90,2012-12-08 14:38:00
9:54 AM,39.9,37.9,93,29.84,7.0,ESE,6.9,-,0.00,,Mostly Cloudy,110,2012-12-08 14:54:00
10:35 AM,41.0,39.2,93,29.82,9.0,ENE,5.8,-,N/A,,Overcast,70,2012-12-08 15:35:00
10:54 AM,42.1,39.9,92,29.81,10.0,ENE,5.8,-,N/A,,Overcast,70,2012-12-08 15:54:00
11:54 AM,43.0,41.0,93,29.78,10.0,East,3.5,-,N/A,,Overcast,90,2012-12-08 16:54:00
12:54 PM,44.1,42.1,93,29.76,10.0,East,5.8,-,N/A,,Overcast,80,2012-12-08 17:54:00
1:25 PM,46.4,42.8,87,29.75,10.0,ENE,3.5,-,N/A,,Overcast,70,2012-12-08 18:25:00
1:54 PM,46.9,44.1,90,29.75,10.0,East,3.5,-,N/A,,Overcast,80,2012-12-08 18:54:00
2:54 PM,48.0,45.0,89,29.77,10.0,North,3.5,-,N/A,,Overcast,10,2012-12-08 19:54:00
3:54 PM,46.0,43.0,89,29.80,10.0,NNW,4.6,-,0.00,,Overcast,340,2012-12-08 20:54:00
4:54 PM,45.0,43.0,93,29.84,10.0,Calm,Calm,-,N/A,,Overcast,0,2012-12-08 21:54:00
5:13 PM,44.6,42.8,93,29.85,10.0,NW,3.5,-,N/A,,Overcast,310,2012-12-08 22:13:00
5:54 PM,48.0,45.0,89,29.88,10.0,West,10.4,-,N/A,,Overcast,270,2012-12-08 22:54:00
6:54 PM,46.9,44.1,90,29.91,10.0,WNW,8.1,-,0.01,,Overcast,300,2012-12-08 23:54:00
7:27 PM,46.4,42.8,87,29.93,10.0,WNW,10.4,-,N/A,,Overcast,300,2012-12-09 00:27:00
7:54 PM,45.0,42.1,90,29.94,10.0,WNW,6.9,-,N/A,,Overcast,290,2012-12-09 00:54:00
8:22 PM,44.6,42.8,93,29.96,10.0,West,12.7,18.4,N/A,,Overcast,280,2012-12-09 01:22:00
8:54 PM,45.0,41.0,86,29.98,10.0,West,12.7,-,N/A,,Overcast,280,2012-12-09 01:54:00
9:54 PM,44.1,41.0,89,30.01,10.0,West,11.5,-,N/A,,Overcast,280,2012-12-09 02:54:00
10:54 PM,42.1,36.0,79,30.06,10.0,WNW,16.1,24.2,N/A,,Overcast,290,2012-12-09 03:54:00
11:54 PM,39.9,33.1,77,30.10,10.0,WNW,13.8,-,N/A,,Overcast,290,2012-12-09 04:54:00